LOWL Airport Information

Runway Information
Runway 09 Length 9843 ft width 197 ft
Elevation 978 ft Threshold 821 ft Heading 87
Runway 27 Length 9843 ft Width 197 ft
Elevation 963 ft Threshold 493 ft Heading 267
Runway 09L Length 2165 ft width 148 ft
Elevation 971 ft Threshold 0 ft Heading 87
Runway 27R Length 2165 ft Width 148 ft
Elevation 968 ft Threshold 0 ft Heading 267
Airport Frequencies
Type APP Name RADAR Frequency 129.625 MHZ
Type ATIS Name ATIS Frequency 128.125 MHZ
Type TWR Name TWR Frequency 118.8 MHZ
Airport Navaids
Airport Weather Information & NOTAM
ADDS - METARS form results

(2044 UTC 21 March 2019)
Data provider http://aviationweather.gov/metar/data/
 
METAR text: LOWL 212020Z AUTO 09003KT 9999 NSC 07/M02 Q1032 NOSIG
Conditions at: LOWL (LINZ (CIV/MIL) , AT) observed 2020 UTC 21 March 2019
Temperature: 7.0°C (45°F)
Dewpoint: -2.0°C (28°F) [RH = 53%]
Pressure (altimeter): 30.47 inches Hg (1032.0 mb)
Winds: from the E (90 degrees) at 3 MPH (3 knots; 1.5 m/s)
Visibility: 6 or more miles (10+ km)
Ceiling: at least 12,000 feet AGL
Clouds: sky clear below 12,000 feet AGL
Weather: no significant weather observed at this time

METAR text: LOWL 211950Z AUTO 09003KT 070V130 9999 NSC 08/M02 Q1032 NOSIG
Conditions at: LOWL (LINZ (CIV/MIL) , AT) observed 1950 UTC 21 March 2019
Temperature: 8.0°C (46°F)
Dewpoint: -2.0°C (28°F) [RH = 49%]
Pressure (altimeter): 30.47 inches Hg (1032.0 mb)
Winds: from the E (90 degrees) at 3 MPH (3 knots; 1.5 m/s)
Visibility: 6 or more miles (10+ km)
Ceiling: at least 12,000 feet AGL
Clouds: sky clear below 12,000 feet AGL
Weather: no significant weather observed at this time

Forecast for: LOWL (LINZ (CIV/MIL) , AT)
Text: TAF LOWL 211715Z 2118/2218 08004KT CAVOK TX17/2215Z TN00/2204Z
Forecast period: 1800 UTC 21 March 2019 to 0700 UTC 22 March 2019
Forecast type: FROM: standard forecast or significant change
Winds: from the E (80 degrees) at 5 MPH (4 knots; 2.1 m/s)
Visibility: 6 or more miles 10+ km)
Ceiling: unknown
Clouds: missing
Weather: no significant weather forecast for this period
Text: BECMG 2207/2209 10012KT
Forecast period: 0700 to 1600 UTC 22 March 2019
Forecast type: BECOMING: Conditions expected to become as follows by 0900 UTC 22 March 2019
Winds: from the E (100 degrees) at 14 MPH (12 knots; 6.2 m/s)
Visibility: 6 or more miles 10+ km)
Ceiling: unknown
Clouds: missing
Weather: no significant weather forecast for this period
Text: BECMG 2216/2218 09005KT
Forecast period: 1600 to 1800 UTC 22 March 2019
Forecast type: BECOMING: Conditions expected to become as follows by 1800 UTC 22 March 2019
Winds: from the E (90 degrees) at 6 MPH (5 knots; 2.6 m/s)
Visibility: 6 or more miles 10+ km)
Ceiling: unknown
Clouds: missing
Weather: no significant weather forecast for this period